createdAt,value
2019-04-06T00:02:03.402Z,80.17
2019-04-06T00:04:34.537Z,88.20
2019-04-06T00:07:05.498Z,92.60
2019-04-06T00:09:36.531Z,86.23
2019-04-06T00:12:07.513Z,88.50
2019-04-06T00:14:39.053Z,92.77
2019-04-06T00:17:10.264Z,88.93
2019-04-06T00:19:41.481Z,77.23
2019-04-06T00:22:12.527Z,82.07
2019-04-06T00:24:43.545Z,95.10
2019-04-06T00:27:14.559Z,81.53
2019-04-06T00:29:45.585Z,85.03
2019-04-06T00:32:35.321Z,77.77
2019-04-06T00:35:09.751Z,90.30
2019-04-06T00:37:40.564Z,86.50
2019-04-06T00:40:11.975Z,82.73
2019-04-06T00:42:43.062Z,78.40
2019-04-06T00:45:14.281Z,84.40
2019-04-06T00:47:48.524Z,73.73
2019-04-06T00:50:22.517Z,79.90
2019-04-06T00:52:53.874Z,83.50
2019-04-06T00:55:25.361Z,84.90
2019-04-06T00:57:56.511Z,88.73
2019-04-06T01:00:27.544Z,82.03
2019-04-06T01:02:58.533Z,82.73
2019-04-06T01:05:29.519Z,97.33
2019-04-06T01:08:00.512Z,95.80
2019-04-06T01:10:31.530Z,94.53
2019-04-06T01:13:02.536Z,94.20
2019-04-06T11:04:44.236Z,31.73
2019-04-06T11:07:50.079Z,33.25
2019-04-06T11:10:36.097Z,31.40
2019-04-06T11:13:22.828Z,30.65
2019-04-06T11:16:31.625Z,30.15
2019-04-06T11:19:29.405Z,30.35
2019-04-06T11:22:19.444Z,30.95
2019-04-06T11:25:12.218Z,30.32
2019-04-06T11:28:03.772Z,31.48
2019-04-06T11:31:00.002Z,31.12
2019-04-06T11:33:42.178Z,28.42
2019-04-06T11:36:32.256Z,30.77
2019-04-06T11:39:19.844Z,34.20
2019-04-06T11:42:08.431Z,30.68
2019-04-06T11:44:58.579Z,36.65
2019-04-06T11:47:47.094Z,35.98
2019-04-06T11:50:45.604Z,38.65
2019-04-06T11:53:34.432Z,38.10
2019-04-06T11:56:24.263Z,35.70
2019-04-06T11:59:10.942Z,42.20
2019-04-06T12:02:03.817Z,38.33
2019-04-06T12:04:47.844Z,44.20
2019-04-06T12:07:26.147Z,44.15
2019-04-06T12:10:05.955Z,42.83
2019-04-06T12:12:52.920Z,39.58
2019-04-06T12:15:47.346Z,38.90
2019-04-06T12:18:37.381Z,37.63
2019-04-06T12:22:36.522Z,38.95
2019-04-06T12:25:19.248Z,36.93
2019-04-06T12:28:11.200Z,39.25
2019-04-06T12:30:49.584Z,36.10
2019-04-06T12:33:31.624Z,38.17
2019-04-06T12:39:03.402Z,35.50
2019-04-06T12:41:53.263Z,37.83
2019-04-06T12:44:58.762Z,37.88
2019-04-06T12:47:47.615Z,35.65
2019-04-06T12:50:37.269Z,34.00
2019-04-06T12:53:27.582Z,32.42
2019-04-06T12:56:17.322Z,30.20
2019-04-06T12:59:07.322Z,32.53
2019-04-06T13:05:03.392Z,30.15
2019-04-06T13:07:59.750Z,26.97
2019-04-06T13:10:59.093Z,27.55
2019-04-06T13:13:58.353Z,24.92
2019-04-06T13:16:43.993Z,24.20
2019-04-06T13:19:42.638Z,26.42
2019-04-06T13:25:33.864Z,23.87
2019-04-06T13:28:23.592Z,23.12
2019-04-06T13:31:16.571Z,21.33
2019-04-06T13:36:42.692Z,22.82
2019-04-06T13:42:00.458Z,28.35
2019-04-06T13:44:43.484Z,22.50
2019-04-06T13:47:31.529Z,23.25
2019-04-06T13:50:22.288Z,24.20
2019-04-06T13:53:15.277Z,20.77
2019-04-06T13:56:13.251Z,22.37
2019-04-06T13:59:09.616Z,22.93
2019-04-06T14:03:39.590Z,20.12
2019-04-06T14:06:29.250Z,22.05
2019-04-06T14:09:19.246Z,20.90
2019-04-06T14:12:15.484Z,18.50
2019-04-06T14:15:02.282Z,21.50
2019-04-06T14:18:01.423Z,18.40
2019-04-06T14:20:51.627Z,18.37
2019-04-06T14:23:38.516Z,18.70
2019-04-06T14:26:27.281Z,14.35
2019-04-06T14:29:21.582Z,15.00
2019-04-06T14:32:12.006Z,12.95
2019-04-06T14:35:00.390Z,15.00
2019-04-06T14:37:59.735Z,14.85
2019-04-06T14:43:37.722Z,13.70
2019-04-06T14:49:13.873Z,19.98
2019-04-06T14:51:59.250Z,15.00
2019-04-06T14:54:42.623Z,10.32
2019-04-06T14:57:18.537Z,15.68
2019-04-06T15:00:09.055Z,10.90
2019-04-06T15:03:06.897Z,11.75
2019-04-06T15:05:59.493Z,15.70
2019-04-06T15:08:55.702Z,18.32
2019-04-06T15:11:39.335Z,17.05
2019-04-06T15:14:32.539Z,15.93
2019-04-06T15:17:24.718Z,18.17
2019-04-06T15:23:07.510Z,19.92
2019-04-06T15:25:57.950Z,17.07
2019-04-06T15:28:43.342Z,20.43
2019-04-06T15:31:48.451Z,26.37
2019-04-06T15:34:27.228Z,23.38
2019-04-06T15:37:17.255Z,25.27
2019-04-06T15:40:06.534Z,24.70
2019-04-06T15:42:49.245Z,25.10
2019-04-06T15:45:41.274Z,25.43
2019-04-06T15:48:37.019Z,22.82
2019-04-06T15:51:13.348Z,25.48
2019-04-06T15:54:09.646Z,21.82
2019-04-06T15:56:52.305Z,27.10
2019-04-06T15:59:58.061Z,26.07
2019-04-06T16:02:44.640Z,31.93
2019-04-06T16:05:30.668Z,22.10
2019-04-06T16:11:26.616Z,23.73
2019-04-06T16:14:26.121Z,24.87
2019-04-06T16:18:05.474Z,23.60
2019-04-06T16:20:46.817Z,24.45
2019-04-06T16:23:30.474Z,26.20
2019-04-06T16:26:34.397Z,20.88
2019-04-06T16:29:42.462Z,24.52
2019-04-06T16:32:33.292Z,22.65
2019-04-06T16:35:18.824Z,19.12
2019-04-06T16:38:17.976Z,22.85
2019-04-06T16:41:10.829Z,21.90
2019-04-06T16:43:54.069Z,22.32
2019-04-06T16:46:32.811Z,22.25
2019-04-06T16:49:13.078Z,22.20
2019-04-06T16:52:02.430Z,18.57
2019-04-06T16:55:04.500Z,24.75
2019-04-06T16:58:00.828Z,20.40
2019-04-06T17:00:59.804Z,24.12
2019-04-06T17:03:40.237Z,21.70
2019-04-06T17:06:23.586Z,21.17
2019-04-06T17:09:12.256Z,16.93
2019-04-06T17:12:01.320Z,16.73
2019-04-06T17:14:57.521Z,18.27
2019-04-06T17:17:47.626Z,21.40
2019-04-06T17:20:43.670Z,18.25
2019-04-06T17:26:50.576Z,26.10
2019-04-06T17:29:31.247Z,19.57
2019-04-06T17:32:40.031Z,19.92
2019-04-06T17:35:26.509Z,18.15
2019-04-06T17:38:19.174Z,17.05
2019-04-06T17:41:05.860Z,16.75
2019-04-06T17:44:04.803Z,16.07
2019-04-06T17:46:54.458Z,20.68
2019-04-06T17:49:59.384Z,14.75
2019-04-06T17:52:57.257Z,17.27
2019-04-06T17:55:50.529Z,21.10
2019-04-06T17:58:33.570Z,17.52
2019-04-06T18:01:36.470Z,28.98
2019-04-06T18:04:25.248Z,22.35
2019-04-06T18:07:26.556Z,18.50
2019-04-06T18:10:14.185Z,20.00
2019-04-06T18:16:10.258Z,19.55
2019-04-06T18:18:41.918Z,25.00
2019-04-06T18:24:04.563Z,19.42
2019-04-06T18:26:35.497Z,22.85
2019-04-06T18:29:06.473Z,18.62
2019-04-06T18:32:02.902Z,15.78
2019-04-06T18:34:34.044Z,21.87
2019-04-06T18:40:15.973Z,20.30
2019-04-06T18:42:46.846Z,18.30
2019-04-06T18:45:17.843Z,20.05
2019-04-06T18:47:48.778Z,20.20
2019-04-06T18:50:19.563Z,17.67
2019-04-06T18:52:51.235Z,21.27
2019-04-06T18:55:22.453Z,22.15
2019-04-06T18:57:53.483Z,21.82
2019-04-06T19:00:25.238Z,22.75
2019-04-06T19:02:56.447Z,21.02
2019-04-06T19:05:27.795Z,23.05
2019-04-06T19:07:58.827Z,22.87
2019-04-06T19:10:29.816Z,21.35
2019-04-06T19:13:00.842Z,22.67
2019-04-06T19:16:34.462Z,22.77
2019-04-06T19:19:06.102Z,25.90
2019-04-06T19:21:37.727Z,23.25
2019-04-06T19:24:08.848Z,23.75
2019-04-06T19:26:39.845Z,27.98
2019-04-06T19:29:10.913Z,27.27
2019-04-06T19:31:42.125Z,23.22
2019-04-06T19:34:13.730Z,26.77
2019-04-06T19:36:45.334Z,23.32
2019-04-06T19:39:16.478Z,23.55
2019-04-06T19:41:47.501Z,20.90
2019-04-06T19:44:18.476Z,20.82
2019-04-06T19:46:49.482Z,23.30
2019-04-06T19:52:12.389Z,24.65
2019-04-06T19:54:43.480Z,22.93
2019-04-06T19:57:14.785Z,23.52
2019-04-06T19:59:45.767Z,25.30
2019-04-06T20:04:46.850Z,27.95
2019-04-06T20:07:21.774Z,25.97
2019-04-06T20:12:40.246Z,32.75
2019-04-06T20:15:12.499Z,31.07
2019-04-06T20:17:43.488Z,27.37
2019-04-06T20:20:14.506Z,29.82
2019-04-06T20:22:45.794Z,27.73
2019-04-06T20:25:17.754Z,25.12
2019-04-06T20:27:48.859Z,26.00
2019-04-06T20:30:20.675Z,26.85
2019-04-06T20:32:51.821Z,30.70
2019-04-06T20:35:22.691Z,27.37
2019-04-06T20:37:53.484Z,26.95
2019-04-06T20:40:24.482Z,25.45
2019-04-06T20:42:55.464Z,30.40
2019-04-06T20:46:38.672Z,29.92
2019-04-06T20:49:09.852Z,30.00
2019-04-06T20:51:40.839Z,25.97
2019-04-06T20:54:11.823Z,28.35
2019-04-06T20:56:53.245Z,27.30
2019-04-06T21:01:25.224Z,28.90
2019-04-06T21:04:01.999Z,37.17
2019-04-06T21:06:29.451Z,44.58
2019-04-06T21:09:00.486Z,31.02
2019-04-06T21:11:31.487Z,29.75
2019-04-06T21:14:02.482Z,38.25
2019-04-06T21:16:33.531Z,25.90
2019-04-06T21:19:48.472Z,25.95
2019-04-06T21:22:19.508Z,27.58
2019-04-06T21:24:50.576Z,29.70
2019-04-06T21:27:21.470Z,30.20
2019-04-06T21:29:52.871Z,31.77
2019-04-06T21:32:29.266Z,28.73
2019-04-06T21:35:00.430Z,31.50
2019-04-06T21:37:31.487Z,34.15
2019-04-06T21:40:02.476Z,28.57
2019-04-06T21:42:33.485Z,31.17
2019-04-06T21:45:04.996Z,29.13
2019-04-06T21:47:35.982Z,27.27
2019-04-06T21:50:08.111Z,31.93
2019-04-06T21:52:40.384Z,32.55
2019-04-06T21:55:15.001Z,46.15
2019-04-06T21:57:46.452Z,122.82
2019-04-06T22:00:27.837Z,33.18
2019-04-06T22:02:59.493Z,27.25
2019-04-06T22:05:30.716Z,26.87
2019-04-06T22:08:01.501Z,28.30
2019-04-06T22:10:33.039Z,28.80
2019-04-06T22:13:04.994Z,28.23
2019-04-06T22:15:36.250Z,28.12
2019-04-06T22:18:36.268Z,28.00
2019-04-06T22:21:08.060Z,32.57
2019-04-06T22:23:43.779Z,27.20
2019-04-06T22:27:24.486Z,27.17
2019-04-06T22:29:55.540Z,27.40
2019-04-06T22:32:26.464Z,30.62
2019-04-06T22:40:13.327Z,27.50
2019-04-06T22:42:45.087Z,29.48
2019-04-06T22:45:18.479Z,28.62
2019-04-06T22:47:49.456Z,26.00
2019-04-06T22:50:20.561Z,29.30
2019-04-06T22:52:51.542Z,26.42
2019-04-06T22:55:22.457Z,29.05
2019-04-06T22:57:53.453Z,24.00
2019-04-06T23:00:30.510Z,27.77
2019-04-06T23:03:11.665Z,24.45
2019-04-06T23:05:46.957Z,26.15
2019-04-06T23:08:18.251Z,26.65
2019-04-06T23:10:50.367Z,25.50
2019-04-06T23:13:21.503Z,24.37
2019-04-06T23:15:52.608Z,24.40
2019-04-06T23:18:23.453Z,25.90
2019-04-06T23:20:54.456Z,25.62
2019-04-06T23:23:25.833Z,27.07
2019-04-06T23:25:57.498Z,31.20
2019-04-06T23:28:28.489Z,24.80
2019-04-06T23:31:00.152Z,26.53
2019-04-06T23:33:31.494Z,28.50
2019-04-06T23:36:02.438Z,25.62
2019-04-06T23:38:33.817Z,25.27
2019-04-06T23:41:05.732Z,27.73
2019-04-06T23:43:36.983Z,24.50
2019-04-06T23:46:08.643Z,27.00
2019-04-06T23:48:39.483Z,26.40
2019-04-06T23:51:10.697Z,24.93
2019-04-06T23:56:11.957Z,26.07
2019-04-06T23:58:43.152Z,28.23
